Airfield :
LOGIN :

Register | Disclaimer

   EN    FR    IT 

 










Legend :    VFR   Marginal VFR   IFR   Intensive IFR   Very Intensive IFR
Visi :
Ceiling :
>= 8 km
>= 3000ft
5 to 8 km
1000 to 3000 ft
1500m to 5 km
500 to 1000 ft
800 to 1500m
200 to 500 ft
< 800m
< 200 ft
Symbols :   Thunderstorms  Fog  Heavy snow  Heavy precipitations  Wind > 20 kt
SIGMETs :     Misc.  Thunderstorms  Icing  Turbulence  Mountain Waves  Volcanic Ashes







- Airport Elevation : 3 ft
- IATA code : DHR


EHKD - Den Helder De Kooy

CURRENT METAR :
  • 260525Z AUTO 19006KT 7000 BR OVC130 09/08 Q1009 WHT 19006KT 7000 NSC BECMG SCT007

EXPIRED METARs :
  • 260502Z AUTO 20007KT 160V230 7000 BR OVC130 09/08 Q1009 WHT 19006KT 7000 NSC BECMG SCT007
  • 260455Z AUTO 19007KT 8000 BR OVC130 09/08 Q1009 BLU 19006KT 7000 NSC BECMG SCT007
  • 260439Z AUTO 21008KT 8000 BR OVC120 09/08 Q1009 BLU 19006KT 7000 NSC BECMG SCT007
  • 260425Z AUTO 19006KT 8000 BR OVC130 09/08 Q1009 BLU 19006KT 7000 NSC BECMG SCT007
  • 260406Z AUTO 19005KT 150V210 7000 BR OVC120 09/08 Q1008 WHT
  • 260357Z AUTO 18005KT 7000 BR OVC120 09/08 Q1008 WHT
  • 260325Z AUTO 17005KT 9000 BR OVC120 09/08 Q1009 BLU
  • 260255Z AUTO 19005KT 9999 BKN046 BKN054 BKN061 09/08 Q1009 BLU

TAF TAF EHKD
Valid from the 26 at 05:00 until the 26 at 17:00 UTC


260417Z 2605/2617 19006KT 8000 NSC
BECMG 2606/2608 23010KT SCT010
BECMG 2608/2610 SCT015
PROB30
TEMPO 2614/2617 24010G20KT SCT015CB SCT020
No reported NOTAMs for that airfield.



MET'MAP, your aeronautical weather chart ! - Copyright ORBIFLY December 2007 - Disclaimer

ORBIFLY MET'MAP TEAM :

Programming & Development : Alexandra Zaïnal
Concept & Development : Baudouin d'Aumeries
Co-Development & Prog : Marc-Olivier Méhu
Technical & hardware support : Manuel Goepfert

Contact : metmap@orbifly.com




SOURCES & CREDITS :

   NOAA